sensor_id;sensor_type;location;lat;lon;timestamp;pressure;altitude;pressure_sealevel;temperature;humidity
17593;BME280;8915;51.760;14.300;2022-10-16T00:00:44;100492.03;;;12.59;100.00
17593;BME280;8915;51.760;14.300;2022-10-16T00:03:11;100493.06;;;12.55;100.00
17593;BME280;8915;51.760;14.300;2022-10-16T00:05:39;100494.94;;;12.51;100.00
17593;BME280;8915;51.760;14.300;2022-10-16T00:08:07;100497.72;;;12.46;100.00
17593;BME280;8915;51.760;14.300;2022-10-16T00:10:34;100502.13;;;12.44;100.00
17593;BME280;8915;51.760;14.300;2022-10-16T00:13:01;100502.97;;;12.45;100.00
17593;BME280;8915;51.760;14.300;2022-10-16T00:15:27;100513.44;;;12.45;100.00
17593;BME280;8915;51.760;14.300;2022-10-16T00:17:55;100510.03;;;12.43;100.00
17593;BME280;8915;51.760;14.300;2022-10-16T00:20:21;100516.25;;;12.40;100.00
17593;BME280;8915;51.760;14.300;2022-10-16T00:22:47;100513.63;;;12.40;100.00
17593;BME280;8915;51.760;14.300;2022-10-16T00:25:14;100516.34;;;12.37;100.00
17593;BME280;8915;51.760;14.300;2022-10-16T00:27:40;100516.34;;;12.37;100.00
17593;BME280;8915;51.760;14.300;2022-10-16T00:30:08;100524.25;;;12.36;100.00
17593;BME280;8915;51.760;14.300;2022-10-16T00:32:34;100522.59;;;12.33;100.00
17593;BME280;8915;51.760;14.300;2022-10-16T00:35:03;100524.28;;;12.34;100.00
17593;BME280;8915;51.760;14.300;2022-10-16T00:37:29;100527.59;;;12.39;100.00
17593;BME280;8915;51.760;14.300;2022-10-16T00:39:56;100528.44;;;12.40;100.00
17593;BME280;8915;51.760;14.300;2022-10-16T00:42:22;100524.97;;;12.39;100.00
17593;BME280;8915;51.760;14.300;2022-10-16T00:44:50;100528.44;;;12.40;100.00
17593;BME280;8915;51.760;14.300;2022-10-16T00:47:20;100527.69;;;12.36;100.00
17593;BME280;8915;51.760;14.300;2022-10-16T00:49:50;100526.06;;;12.34;100.00
17593;BME280;8915;51.760;14.300;2022-10-16T00:52:19;100524.50;;;12.28;100.00
17593;BME280;8915;51.760;14.300;2022-10-16T00:54:46;100518.59;;;12.23;100.00
17593;BME280;8915;51.760;14.300;2022-10-16T00:57:13;100526.56;;;12.18;100.00
17593;BME280;8915;51.760;14.300;2022-10-16T00:59:41;100518.00;;;12.15;100.00
17593;BME280;8915;51.760;14.300;2022-10-16T01:02:10;100520.75;;;12.10;100.00
17593;BME280;8915;51.760;14.300;2022-10-16T01:04:40;100514.78;;;12.06;100.00
17593;BME280;8915;51.760;14.300;2022-10-16T01:07:12;100519.31;;;12.01;100.00
17593;BME280;8915;51.760;14.300;2022-10-16T01:09:49;100518.63;;;11.96;100.00
17593;BME280;8915;51.760;14.300;2022-10-16T01:12:23;100519.66;;;11.90;100.00
17593;BME280;8915;51.760;14.300;2022-10-16T01:14:54;100530.25;;;11.86;100.00
17593;BME280;8915;51.760;14.300;2022-10-16T01:17:28;100531.25;;;11.82;100.00
17593;BME280;8915;51.760;14.300;2022-10-16T01:20:04;100527.06;;;11.76;100.00
17593;BME280;8915;51.760;14.300;2022-10-16T01:22:39;100531.63;;;11.69;100.00
17593;BME280;8915;51.760;14.300;2022-10-16T01:25:18;100539.72;;;11.62;100.00
17593;BME280;8915;51.760;14.300;2022-10-16T01:27:50;100539.09;;;11.53;100.00
17593;BME280;8915;51.760;14.300;2022-10-16T01:30:21;100534.06;;;11.49;100.00
17593;BME280;8915;51.760;14.300;2022-10-16T01:32:50;100529.81;;;11.45;100.00
17593;BME280;8915;51.760;14.300;2022-10-16T01:35:25;100537.88;;;11.37;100.00
17593;BME280;8915;51.760;14.300;2022-10-16T01:37:56;100541.59;;;11.30;100.00
17593;BME280;8915;51.760;14.300;2022-10-16T01:40:27;100542.63;;;11.24;100.00
17593;BME280;8915;51.760;14.300;2022-10-16T01:42:59;100544.38;;;11.24;100.00
17593;BME280;8915;51.760;14.300;2022-10-16T01:45:28;100543.66;;;11.18;100.00
17593;BME280;8915;51.760;14.300;2022-10-16T01:47:55;100547.13;;;11.19;100.00
17593;BME280;8915;51.760;14.300;2022-10-16T01:50:24;100548.81;;;11.20;100.00
17593;BME280;8915;51.760;14.300;2022-10-16T01:52:51;100556.59;;;11.22;100.00
17593;BME280;8915;51.760;14.300;2022-10-16T01:55:22;100552.28;;;11.22;100.00
17593;BME280;8915;51.760;14.300;2022-10-16T01:57:51;100553.84;;;11.28;100.00
17593;BME280;8915;51.760;14.300;2022-10-16T02:00:22;100559.84;;;11.30;100.00
17593;BME280;8915;51.760;14.300;2022-10-16T02:02:52;100558.94;;;11.31;100.00
17593;BME280;8915;51.760;14.300;2022-10-16T02:05:23;100560.66;;;11.32;100.00
17593;BME280;8915;51.760;14.300;2022-10-16T02:07:50;100565.88;;;11.32;100.00
17593;BME280;8915;51.760;14.300;2022-10-16T02:10:17;100567.56;;;11.34;100.00
17593;BME280;8915;51.760;14.300;2022-10-16T02:12:46;100575.19;;;11.41;100.00
17593;BME280;8915;51.760;14.300;2022-10-16T02:15:14;100577.47;;;11.51;100.00
17593;BME280;8915;51.760;14.300;2022-10-16T02:17:42;100578.09;;;11.60;100.00
17593;BME280;8915;51.760;14.300;2022-10-16T02:20:09;100575.31;;;11.64;100.00
17593;BME280;8915;51.760;14.300;2022-10-16T02:22:39;100583.81;;;11.71;100.00
17593;BME280;8915;51.760;14.300;2022-10-16T02:25:10;100578.44;;;11.77;100.00
17593;BME280;8915;51.760;14.300;2022-10-16T02:27:41;100580.03;;;11.81;100.00
17593;BME280;8915;51.760;14.300;2022-10-16T02:30:13;100583.31;;;11.88;100.00
17593;BME280;8915;51.760;14.300;2022-10-16T02:32:43;100581.38;;;11.95;100.00
17593;BME280;8915;51.760;14.300;2022-10-16T02:35:12;100577.63;;;12.03;100.00
17593;BME280;8915;51.760;14.300;2022-10-16T02:37:40;100586.16;;;12.08;100.00
17593;BME280;8915;51.760;14.300;2022-10-16T02:40:08;100589.34;;;12.17;100.00
17593;BME280;8915;51.760;14.300;2022-10-16T02:42:37;100594.41;;;12.23;100.00
17593;BME280;8915;51.760;14.300;2022-10-16T02:45:06;100596.78;;;12.29;100.00
17593;BME280;8915;51.760;14.300;2022-10-16T02:47:33;100601.13;;;12.30;100.00
17593;BME280;8915;51.760;14.300;2022-10-16T02:50:01;100598.34;;;12.35;100.00
17593;BME280;8915;51.760;14.300;2022-10-16T02:52:28;100600.06;;;12.36;100.00
17593;BME280;8915;51.760;14.300;2022-10-16T02:54:54;100593.81;;;12.40;100.00
17593;BME280;8915;51.760;14.300;2022-10-16T02:57:22;100590.19;;;12.44;100.00
17593;BME280;8915;51.760;14.300;2022-10-16T02:59:48;100587.34;;;12.50;100.00
17593;BME280;8915;51.760;14.300;2022-10-16T03:02:14;100586.47;;;12.51;100.00
17593;BME280;8915;51.760;14.300;2022-10-16T03:04:41;100585.50;;;12.54;100.00
17593;BME280;8915;51.760;14.300;2022-10-16T03:07:08;100585.50;;;12.54;100.00
17593;BME280;8915;51.760;14.300;2022-10-16T03:09:35;100587.03;;;12.59;100.00
17593;BME280;8915;51.760;14.300;2022-10-16T03:12:01;100585.25;;;12.61;100.00
17593;BME280;8915;51.760;14.300;2022-10-16T03:14:28;100589.53;;;12.62;100.00
17593;BME280;8915;51.760;14.300;2022-10-16T03:16:54;100602.56;;;12.64;100.00
17593;BME280;8915;51.760;14.300;2022-10-16T03:19:20;100592.06;;;12.65;100.00
17593;BME280;8915;51.760;14.300;2022-10-16T03:21:47;100590.34;;;12.64;100.00
17593;BME280;8915;51.760;14.300;2022-10-16T03:24:15;100593.88;;;12.63;100.00
17593;BME280;8915;51.760;14.300;2022-10-16T03:26:41;100599.09;;;12.63;100.00
17593;BME280;8915;51.760;14.300;2022-10-16T03:29:09;100603.38;;;12.66;100.00
17593;BME280;8915;51.760;14.300;2022-10-16T03:31:36;100592.00;;;12.67;100.00
17593;BME280;8915;51.760;14.300;2022-10-16T03:34:02;100594.56;;;12.68;100.00
17593;BME280;8915;51.760;14.300;2022-10-16T03:36:29;100601.50;;;12.69;100.00
17593;BME280;8915;51.760;14.300;2022-10-16T03:38:55;100599.66;;;12.72;100.00
17593;BME280;8915;51.760;14.300;2022-10-16T03:41:23;100600.50;;;12.74;100.00
17593;BME280;8915;51.760;14.300;2022-10-16T03:43:49;100598.72;;;12.74;100.00
17593;BME280;8915;51.760;14.300;2022-10-16T03:46:15;100594.25;;;12.78;100.00
17593;BME280;8915;51.760;14.300;2022-10-16T03:48:42;100602.09;;;12.78;100.00
17593;BME280;8915;51.760;14.300;2022-10-16T03:51:08;100607.28;;;12.79;100.00
17593;BME280;8915;51.760;14.300;2022-10-16T03:53:35;100627.22;;;12.82;100.00
17593;BME280;8915;51.760;14.300;2022-10-16T03:56:02;100623.72;;;12.83;100.00
17593;BME280;8915;51.760;14.300;2022-10-16T03:58:29;100626.28;;;12.84;100.00
17593;BME280;8915;51.760;14.300;2022-10-16T04:00:56;100624.44;;;12.86;100.00
17593;BME280;8915;51.760;14.300;2022-10-16T04:03:22;100635.72;;;12.88;100.00
17593;BME280;8915;51.760;14.300;2022-10-16T04:05:48;100630.47;;;12.88;100.00
17593;BME280;8915;51.760;14.300;2022-10-16T04:08:15;100626.03;;;12.91;100.00
17593;BME280;8915;51.760;14.300;2022-10-16T04:10:42;100626.91;;;12.91;100.00
17593;BME280;8915;51.760;14.300;2022-10-16T04:13:08;100627.72;;;12.93;100.00
17593;BME280;8915;51.760;14.300;2022-10-16T04:15:36;100628.50;;;12.95;100.00
17593;BME280;8915;51.760;14.300;2022-10-16T04:18:04;100633.75;;;12.95;100.00
17593;BME280;8915;51.760;14.300;2022-10-16T04:20:33;100629.31;;;12.97;100.00
17593;BME280;8915;51.760;14.300;2022-10-16T04:23:00;100634.47;;;12.99;100.00
17593;BME280;8915;51.760;14.300;2022-10-16T04:25:26;100645.75;;;13.01;100.00
17593;BME280;8915;51.760;14.300;2022-10-16T04:27:53;100652.69;;;13.02;100.00
17593;BME280;8915;51.760;14.300;2022-10-16T04:30:20;100651.91;;;13.00;100.00
17593;BME280;8915;51.760;14.300;2022-10-16T04:32:49;100645.91;;;12.96;100.00
17593;BME280;8915;51.760;14.300;2022-10-16T04:35:15;100653.84;;;12.95;100.00
17593;BME280;8915;51.760;14.300;2022-10-16T04:37:41;100651.41;;;12.88;100.00
17593;BME280;8915;51.760;14.300;2022-10-16T04:40:09;100650.72;;;12.83;100.00
17593;BME280;8915;51.760;14.300;2022-10-16T04:42:35;100654.38;;;12.79;100.00
17593;BME280;8915;51.760;14.300;2022-10-16T04:45:02;100652.69;;;12.77;100.00
17593;BME280;8915;51.760;14.300;2022-10-16T04:47:28;100645.88;;;12.73;100.00
17593;BME280;8915;51.760;14.300;2022-10-16T04:49:56;100645.06;;;12.71;100.00
17593;BME280;8915;51.760;14.300;2022-10-16T04:52:25;100632.94;;;12.68;100.00
17593;BME280;8915;51.760;14.300;2022-10-16T04:54:51;100634.75;;;12.66;100.00
17593;BME280;8915;51.760;14.300;2022-10-16T04:57:18;100641.00;;;12.62;100.00
17593;BME280;8915;51.760;14.300;2022-10-16T04:59:45;100641.84;;;12.62;100.00
17593;BME280;8915;51.760;14.300;2022-10-16T05:02:11;100645.41;;;12.61;100.00
17593;BME280;8915;51.760;14.300;2022-10-16T05:04:38;100642.94;;;12.57;100.00
17593;BME280;8915;51.760;14.300;2022-10-16T05:07:05;100643.94;;;12.53;100.00
17593;BME280;8915;51.760;14.300;2022-10-16T05:09:32;100649.22;;;12.51;100.00
17593;BME280;8915;51.760;14.300;2022-10-16T05:11:58;100648.47;;;12.47;100.00
17593;BME280;8915;51.760;14.300;2022-10-16T05:14:25;100651.03;;;12.49;100.00
17593;BME280;8915;51.760;14.300;2022-10-16T05:16:51;100653.53;;;12.52;100.00
17593;BME280;8915;51.760;14.300;2022-10-16T05:19:18;100656.97;;;12.54;100.00
17593;BME280;8915;51.760;14.300;2022-10-16T05:21:44;100658.66;;;12.55;100.00
17593;BME280;8915;51.760;14.300;2022-10-16T05:24:12;100666.56;;;12.54;100.00
17593;BME280;8915;51.760;14.300;2022-10-16T05:26:39;100669.19;;;12.54;100.00
17593;BME280;8915;51.760;14.300;2022-10-16T05:29:05;100663.91;;;12.55;100.00
17593;BME280;8915;51.760;14.300;2022-10-16T05:31:31;100664.66;;;12.59;100.00
17593;BME280;8915;51.760;14.300;2022-10-16T05:33:58;100667.22;;;12.60;100.00
17593;BME280;8915;51.760;14.300;2022-10-16T05:36:25;100673.28;;;12.61;100.00
17593;BME280;8915;51.760;14.300;2022-10-16T05:38:52;100670.63;;;12.62;100.00
17593;BME280;8915;51.760;14.300;2022-10-16T05:41:19;100667.13;;;12.63;100.00
17593;BME280;8915;51.760;14.300;2022-10-16T05:43:47;100672.31;;;12.65;100.00
17593;BME280;8915;51.760;14.300;2022-10-16T05:46:13;100673.09;;;12.67;100.00
17593;BME280;8915;51.760;14.300;2022-10-16T05:48:40;100682.53;;;12.71;100.00
17593;BME280;8915;51.760;14.300;2022-10-16T05:51:10;100687.63;;;12.76;100.00
17593;BME280;8915;51.760;14.300;2022-10-16T05:53:38;100687.41;;;12.82;100.00
17593;BME280;8915;51.760;14.300;2022-10-16T05:56:05;100692.44;;;12.88;100.00
17593;BME280;8915;51.760;14.300;2022-10-16T05:58:34;100688.78;;;12.92;100.00
17593;BME280;8915;51.760;14.300;2022-10-16T06:01:04;100693.84;;;12.98;100.00
17593;BME280;8915;51.760;14.300;2022-10-16T06:03:32;100698.09;;;13.01;100.00
17593;BME280;8915;51.760;14.300;2022-10-16T06:05:58;100708.59;;;12.99;100.00
17593;BME280;8915;51.760;14.300;2022-10-16T06:08:25;100711.28;;;12.98;100.00
17593;BME280;8915;51.760;14.300;2022-10-16T06:11:00;100723.47;;;12.99;100.00
17593;BME280;8915;51.760;14.300;2022-10-16T06:13:29;100724.31;;;12.99;100.00
17593;BME280;8915;51.760;14.300;2022-10-16T06:15:58;100731.97;;;13.05;100.00
17593;BME280;8915;51.760;14.300;2022-10-16T06:18:25;100735.28;;;13.11;100.00
17593;BME280;8915;51.760;14.300;2022-10-16T06:20:52;100728.13;;;13.16;100.00
17593;BME280;8915;51.760;14.300;2022-10-16T06:23:18;100730.66;;;13.17;100.00
17593;BME280;8915;51.760;14.300;2022-10-16T06:25:45;100732.44;;;13.17;100.00
17593;BME280;8915;51.760;14.300;2022-10-16T06:28:13;100731.59;;;13.16;100.00
17593;BME280;8915;51.760;14.300;2022-10-16T06:30:39;100731.72;;;13.12;100.00
17593;BME280;8915;51.760;14.300;2022-10-16T06:33:07;100728.31;;;13.10;100.00
17593;BME280;8915;51.760;14.300;2022-10-16T06:35:33;100729.22;;;13.08;100.00
17593;BME280;8915;51.760;14.300;2022-10-16T06:38:00;100726.69;;;13.07;100.00
17593;BME280;8915;51.760;14.300;2022-10-16T06:40:26;100720.53;;;13.08;100.00
17593;BME280;8915;51.760;14.300;2022-10-16T06:42:54;100735.38;;;13.07;100.00
17593;BME280;8915;51.760;14.300;2022-10-16T06:45:20;100738.88;;;13.06;100.00
17593;BME280;8915;51.760;14.300;2022-10-16T06:47:47;100740.56;;;13.09;100.00
17593;BME280;8915;51.760;14.300;2022-10-16T06:50:14;100742.22;;;13.12;100.00
17593;BME280;8915;51.760;14.300;2022-10-16T06:52:41;100740.38;;;13.14;100.00
17593;BME280;8915;51.760;14.300;2022-10-16T06:55:07;100742.81;;;13.20;100.00
17593;BME280;8915;51.760;14.300;2022-10-16T06:57:34;100756.38;;;13.31;100.00
17593;BME280;8915;51.760;14.300;2022-10-16T07:00:00;100755.16;;;13.41;100.00
17593;BME280;8915;51.760;14.300;2022-10-16T07:02:26;100736.38;;;13.54;100.00
17593;BME280;8915;51.760;14.300;2022-10-16T07:04:53;100748.28;;;13.62;100.00
17593;BME280;8915;51.760;14.300;2022-10-16T07:07:20;100754.94;;;13.71;100.00
17593;BME280;8915;51.760;14.300;2022-10-16T07:09:49;100761.72;;;13.77;100.00
17593;BME280;8915;51.760;14.300;2022-10-16T07:12:16;100761.50;;;13.83;100.00
17593;BME280;8915;51.760;14.300;2022-10-16T07:14:42;100769.19;;;13.88;100.00
17593;BME280;8915;51.760;14.300;2022-10-16T07:17:09;100769.72;;;13.97;100.00
17593;BME280;8915;51.760;14.300;2022-10-16T07:19:36;100758.06;;;14.05;100.00
17593;BME280;8915;51.760;14.300;2022-10-16T07:22:02;100760.53;;;14.09;100.00
17593;BME280;8915;51.760;14.300;2022-10-16T07:24:31;100754.19;;;14.15;100.00
17593;BME280;8915;51.760;14.300;2022-10-16T07:26:57;100762.66;;;14.22;100.00
17593;BME280;8915;51.760;14.300;2022-10-16T07:29:24;100770.22;;;14.29;100.00
17593;BME280;8915;51.760;14.300;2022-10-16T07:31:50;100772.69;;;14.34;100.00
17593;BME280;8915;51.760;14.300;2022-10-16T07:34:18;100771.63;;;14.38;100.00
17593;BME280;8915;51.760;14.300;2022-10-16T07:36:47;100771.47;;;14.43;100.00
17593;BME280;8915;51.760;14.300;2022-10-16T07:39:14;100774.75;;;14.48;100.00
17593;BME280;8915;51.760;14.300;2022-10-16T07:41:41;100765.66;;;14.56;100.00
17593;BME280;8915;51.760;14.300;2022-10-16T07:44:08;100771.34;;;14.68;100.00
17593;BME280;8915;51.760;14.300;2022-10-16T07:46:35;100782.47;;;14.74;100.00
17593;BME280;8915;51.760;14.300;2022-10-16T07:49:01;100792.63;;;14.82;100.00
17593;BME280;8915;51.760;14.300;2022-10-16T07:51:27;100793.28;;;14.87;100.00
17593;BME280;8915;51.760;14.300;2022-10-16T07:53:54;100791.41;;;14.91;100.00
17593;BME280;8915;51.760;14.300;2022-10-16T07:56:21;100801.91;;;14.91;100.00
17593;BME280;8915;51.760;14.300;2022-10-16T07:58:49;100813.13;;;14.94;100.00
17593;BME280;8915;51.760;14.300;2022-10-16T08:01:17;100812.00;;;15.00;100.00
17593;BME280;8915;51.760;14.300;2022-10-16T08:03:44;100814.41;;;15.06;100.00
17593;BME280;8915;51.760;14.300;2022-10-16T08:06:10;100815.00;;;15.13;100.00
17593;BME280;8915;51.760;14.300;2022-10-16T08:08:37;100825.09;;;15.22;100.00
17593;BME280;8915;51.760;14.300;2022-10-16T08:11:04;100820.91;;;15.39;100.00
17593;BME280;8915;51.760;14.300;2022-10-16T08:13:31;100822.94;;;15.52;100.00
17593;BME280;8915;51.760;14.300;2022-10-16T08:15:59;100826.94;;;15.61;100.00
17593;BME280;8915;51.760;14.300;2022-10-16T08:18:26;100829.38;;;15.66;100.00
17593;BME280;8915;51.760;14.300;2022-10-16T08:20:56;100826.50;;;15.70;100.00
17593;BME280;8915;51.760;14.300;2022-10-16T08:23:23;100824.56;;;15.76;100.00
17593;BME280;8915;51.760;14.300;2022-10-16T08:25:51;100822.41;;;15.85;100.00
17593;BME280;8915;51.760;14.300;2022-10-16T08:28:17;100824.47;;;15.98;100.00
17593;BME280;8915;51.760;14.300;2022-10-16T08:30:43;100834.38;;;16.12;100.00
17593;BME280;8915;51.760;14.300;2022-10-16T08:33:11;100831.16;;;16.24;100.00
17593;BME280;8915;51.760;14.300;2022-10-16T08:35:37;100831.44;;;16.37;100.00
17593;BME280;8915;51.760;14.300;2022-10-16T08:38:04;100840.69;;;16.45;100.00
17593;BME280;8915;51.760;14.300;2022-10-16T08:40:33;100830.66;;;16.54;100.00
17593;BME280;8915;51.760;14.300;2022-10-16T08:43:12;100835.09;;;16.71;100.00
17593;BME280;8915;51.760;14.300;2022-10-16T08:45:58;100827.41;;;16.85;100.00
17593;BME280;8915;51.760;14.300;2022-10-16T08:48:35;100836.81;;;17.08;100.00
17593;BME280;8915;51.760;14.300;2022-10-16T08:51:05;100846.66;;;17.22;100.00
17593;BME280;8915;51.760;14.300;2022-10-16T08:53:37;100845.50;;;17.28;100.00
17593;BME280;8915;51.760;14.300;2022-10-16T08:56:06;100836.34;;;17.35;100.00
17593;BME280;8915;51.760;14.300;2022-10-16T08:58:33;100836.09;;;17.39;100.00
17593;BME280;8915;51.760;14.300;2022-10-16T09:01:01;100835.09;;;17.42;100.00
17593;BME280;8915;51.760;14.300;2022-10-16T09:03:40;100836.72;;;17.45;100.00
17593;BME280;8915;51.760;14.300;2022-10-16T09:06:27;100846.34;;;17.46;100.00
17593;BME280;8915;51.760;14.300;2022-10-16T09:09:06;100841.81;;;17.48;100.00
17593;BME280;8915;51.760;14.300;2022-10-16T09:11:43;100842.84;;;17.45;100.00
17593;BME280;8915;51.760;14.300;2022-10-16T09:14:23;100850.00;;;17.43;100.00
17593;BME280;8915;51.760;14.300;2022-10-16T09:17:11;100854.31;;;17.44;100.00
17593;BME280;8915;51.760;14.300;2022-10-16T09:19:48;100856.78;;;17.47;100.00
17593;BME280;8915;51.760;14.300;2022-10-16T09:22:18;100854.84;;;17.51;100.00
17593;BME280;8915;51.760;14.300;2022-10-16T09:24:48;100861.09;;;17.66;100.00
17593;BME280;8915;51.760;14.300;2022-10-16T09:27:14;100870.94;;;17.79;100.00
17593;BME280;8915;51.760;14.300;2022-10-16T09:29:41;100872.72;;;17.96;100.00
17593;BME280;8915;51.760;14.300;2022-10-16T09:32:11;100875.41;;;18.12;100.00
17593;BME280;8915;51.760;14.300;2022-10-16T09:34:43;100888.25;;;18.19;100.00
17593;BME280;8915;51.760;14.300;2022-10-16T09:37:13;100887.66;;;18.13;100.00
17593;BME280;8915;51.760;14.300;2022-10-16T09:39:44;100886.78;;;18.13;100.00
17593;BME280;8915;51.760;14.300;2022-10-16T09:42:14;100886.63;;;18.16;100.00
17593;BME280;8915;51.760;14.300;2022-10-16T09:44:41;100882.28;;;18.15;100.00
17593;BME280;8915;51.760;14.300;2022-10-16T09:47:14;100887.84;;;18.26;100.00
17593;BME280;8915;51.760;14.300;2022-10-16T09:49:52;100901.16;;;18.57;100.00
17593;BME280;8915;51.760;14.300;2022-10-16T09:52:19;100906.50;;;18.71;100.00
17593;BME280;8915;51.760;14.300;2022-10-16T09:54:50;100905.59;;;18.72;100.00
17593;BME280;8915;51.760;14.300;2022-10-16T09:57:17;100908.69;;;18.96;100.00
17593;BME280;8915;51.760;14.300;2022-10-16T09:59:46;100908.19;;;19.20;100.00
17593;BME280;8915;51.760;14.300;2022-10-16T10:02:14;100916.63;;;19.26;100.00
17593;BME280;8915;51.760;14.300;2022-10-16T10:04:47;100911.88;;;19.17;100.00
17593;BME280;8915;51.760;14.300;2022-10-16T10:07:23;100909.38;;;19.30;100.00
17593;BME280;8915;51.760;14.300;2022-10-16T10:09:50;100910.94;;;19.48;100.00
17593;BME280;8915;51.760;14.300;2022-10-16T10:12:19;100909.81;;;19.53;100.00
17593;BME280;8915;51.760;14.300;2022-10-16T10:14:47;100917.34;;;19.44;100.00
17593;BME280;8915;51.760;14.300;2022-10-16T10:17:17;100918.94;;;19.17;100.00
17593;BME280;8915;51.760;14.300;2022-10-16T10:19:48;100913.25;;;18.92;100.00
17593;BME280;8915;51.760;14.300;2022-10-16T10:22:39;100902.41;;;18.81;100.00
17593;BME280;8915;51.760;14.300;2022-10-16T10:25:26;100908.06;;;18.75;100.00
17593;BME280;8915;51.760;14.300;2022-10-16T10:28:07;100911.50;;;18.93;100.00
17593;BME280;8915;51.760;14.300;2022-10-16T10:30:41;100912.72;;;19.18;100.00
17593;BME280;8915;51.760;14.300;2022-10-16T10:33:19;100915.16;;;19.37;100.00
17593;BME280;8915;51.760;14.300;2022-10-16T10:35:52;100913.78;;;19.45;100.00
17593;BME280;8915;51.760;14.300;2022-10-16T10:38:31;100910.41;;;19.58;100.00
17593;BME280;8915;51.760;14.300;2022-10-16T10:41:07;100912.00;;;19.60;100.00
17593;BME280;8915;51.760;14.300;2022-10-16T10:43:52;100926.66;;;19.66;100.00
17593;BME280;8915;51.760;14.300;2022-10-16T10:46:31;100934.09;;;19.75;100.00
17593;BME280;8915;51.760;14.300;2022-10-16T10:49:09;100935.06;;;19.73;100.00
17593;BME280;8915;51.760;14.300;2022-10-16T10:51:44;100933.28;;;19.73;100.00
17593;BME280;8915;51.760;14.300;2022-10-16T10:54:20;100938.94;;;19.67;100.00
17593;BME280;8915;51.760;14.300;2022-10-16T10:56:57;100935.91;;;19.73;100.00
17593;BME280;8915;51.760;14.300;2022-10-16T10:59:32;100938.16;;;19.81;100.00
17593;BME280;8915;51.760;14.300;2022-10-16T11:02:10;100930.41;;;19.78;100.00
17593;BME280;8915;51.760;14.300;2022-10-16T11:04:52;100925.28;;;19.75;100.00
17593;BME280;8915;51.760;14.300;2022-10-16T11:07:25;100938.50;;;19.75;100.00
17593;BME280;8915;51.760;14.300;2022-10-16T11:09:57;100943.38;;;19.66;100.00
17593;BME280;8915;51.760;14.300;2022-10-16T11:12:27;100941.63;;;19.51;100.00
17593;BME280;8915;51.760;14.300;2022-10-16T11:15:00;100936.91;;;19.42;100.00
17593;BME280;8915;51.760;14.300;2022-10-16T11:17:31;100935.47;;;19.51;100.00
17593;BME280;8915;51.760;14.300;2022-10-16T11:20:05;100936.59;;;19.46;100.00
17593;BME280;8915;51.760;14.300;2022-10-16T11:22:41;100937.81;;;19.41;100.00
17593;BME280;8915;51.760;14.300;2022-10-16T11:25:14;100938.44;;;19.30;100.00
17593;BME280;8915;51.760;14.300;2022-10-16T11:27:44;100936.56;;;19.32;100.00
17593;BME280;8915;51.760;14.300;2022-10-16T11:30:16;100931.78;;;19.39;100.00
17593;BME280;8915;51.760;14.300;2022-10-16T11:32:53;100934.72;;;19.48;100.00
17593;BME280;8915;51.760;14.300;2022-10-16T11:35:23;100944.88;;;19.56;100.00
17593;BME280;8915;51.760;14.300;2022-10-16T11:37:53;100951.94;;;19.56;100.00
17593;BME280;8915;51.760;14.300;2022-10-16T11:40:25;100955.91;;;19.63;100.00
17593;BME280;8915;51.760;14.300;2022-10-16T11:42:58;100947.22;;;19.61;100.00
17593;BME280;8915;51.760;14.300;2022-10-16T11:45:31;100944.88;;;19.56;100.00
17593;BME280;8915;51.760;14.300;2022-10-16T11:48:02;100948.56;;;19.38;100.00
17593;BME280;8915;51.760;14.300;2022-10-16T11:50:35;100946.88;;;19.37;100.00
17593;BME280;8915;51.760;14.300;2022-10-16T11:53:13;100955.28;;;19.43;100.00
17593;BME280;8915;51.760;14.300;2022-10-16T11:55:44;100953.72;;;19.55;100.00
17593;BME280;8915;51.760;14.300;2022-10-16T11:58:16;100956.28;;;19.57;100.00
17593;BME280;8915;51.760;14.300;2022-10-16T12:00:47;100953.56;;;19.58;100.00
17593;BME280;8915;51.760;14.300;2022-10-16T12:03:25;100956.13;;;19.60;100.00
17593;BME280;8915;51.760;14.300;2022-10-16T12:06:01;100953.28;;;19.63;100.00
17593;BME280;8915;51.760;14.300;2022-10-16T12:08:33;100942.97;;;19.58;100.00
17593;BME280;8915;51.760;14.300;2022-10-16T12:11:09;100943.53;;;19.49;100.00
17593;BME280;8915;51.760;14.300;2022-10-16T12:13:37;100946.88;;;19.37;100.00
17593;BME280;8915;51.760;14.300;2022-10-16T12:16:05;100938.09;;;19.36;100.00
17593;BME280;8915;51.760;14.300;2022-10-16T12:18:32;100940.09;;;19.47;100.00
17593;BME280;8915;51.760;14.300;2022-10-16T12:21:00;100949.03;;;19.60;100.00
17593;BME280;8915;51.760;14.300;2022-10-16T12:23:32;100953.19;;;19.64;100.00
17593;BME280;8915;51.760;14.300;2022-10-16T12:25:59;100960.91;;;19.53;100.00
17593;BME280;8915;51.760;14.300;2022-10-16T12:28:30;100956.16;;;19.44;100.00
17593;BME280;8915;51.760;14.300;2022-10-16T12:30:59;100955.19;;;19.45;100.00
17593;BME280;8915;51.760;14.300;2022-10-16T12:33:28;100959.81;;;19.41;100.00
17593;BME280;8915;51.760;14.300;2022-10-16T12:35:56;100965.69;;;19.46;100.00
17593;BME280;8915;51.760;14.300;2022-10-16T12:38:26;100960.81;;;19.55;100.00
17593;BME280;8915;51.760;14.300;2022-10-16T12:40:59;100965.66;;;19.62;100.00
17593;BME280;8915;51.760;14.300;2022-10-16T12:43:39;100972.16;;;19.57;100.00
17593;BME280;8915;51.760;14.300;2022-10-16T12:46:22;100978.75;;;19.49;100.00
17593;BME280;8915;51.760;14.300;2022-10-16T12:48:49;100970.13;;;19.46;100.00
17593;BME280;8915;51.760;14.300;2022-10-16T12:51:23;100980.66;;;19.32;100.00